Alamance, North Carolina
Current Conditions -  °F | °C
As of 7:54 AM on Wednesday 22 Oct 2014 (Local Time) from KBUY Reporting Station
Clear Clear  
Wind Chill:   Ceiling: Unl
Heat Index:   Visibility: 10mi
Dew Point:   Wind: 8mph
Humidity: 64%   Direction: 300°WNW
Pressure: 30"   Gusts: NA
Location:  36.04°N, 79.49°W
Report Text: KBUY 221154Z AUTO 30007KT 10SM CLR 09/03 A3000 RMK AO2 SLP155 T00940028 10100 20072 53010
Loading
Personal Weather Stations






























Interactive Weather Map
Tropical Storm Tracking
New forecast layout! Learn more

10-Day Weather Forecast

Advertisements
Track Severe Weather on mobile